createdAt,value
2022-12-31T00:00:39.688Z,10.15
2022-12-31T00:01:44.227Z,10.07
2022-12-31T00:02:46.266Z,10.12
2022-12-31T00:03:51.302Z,10.14
2022-12-31T00:04:54.962Z,10.14
2022-12-31T00:05:59.505Z,10.23
2022-12-31T00:07:01.588Z,10.28
2022-12-31T00:08:06.385Z,10.36
2022-12-31T00:09:08.598Z,10.40
2022-12-31T00:10:13.268Z,10.38
2022-12-31T00:11:16.184Z,10.45
2022-12-31T00:12:20.723Z,10.38
2022-12-31T00:13:22.748Z,10.35
2022-12-31T00:14:27.254Z,10.30
2022-12-31T00:15:32.124Z,10.20
2022-12-31T00:16:39.089Z,10.23
2022-12-31T00:17:41.136Z,10.19
2022-12-31T00:18:46.969Z,10.32
2022-12-31T00:19:48.929Z,10.32
2022-12-31T00:20:53.473Z,10.39
2022-12-31T00:21:55.439Z,10.42
2022-12-31T00:23:00.053Z,10.49
2022-12-31T00:24:05.798Z,10.55
2022-12-31T00:25:08.927Z,10.59
2022-12-31T00:26:15.909Z,10.62
2022-12-31T00:27:17.957Z,10.58
2022-12-31T00:28:22.520Z,10.67
2022-12-31T00:29:24.776Z,10.76
2022-12-31T00:30:29.450Z,10.81
2022-12-31T00:31:38.982Z,10.82
2022-12-31T00:32:41.000Z,10.86
2022-12-31T00:33:46.608Z,11.05
2022-12-31T00:34:48.634Z,11.04
2022-12-31T00:35:53.194Z,11.01
2022-12-31T00:36:55.144Z,10.91
2022-12-31T00:37:59.672Z,11.00
2022-12-31T00:39:03.184Z,11.01
2022-12-31T00:40:08.976Z,10.99
2022-12-31T00:41:11.965Z,10.98
2022-12-31T00:42:16.655Z,11.04
2022-12-31T00:43:18.596Z,11.06
2022-12-31T00:44:23.634Z,11.02
2022-12-31T00:45:25.705Z,11.04
2022-12-31T00:46:31.942Z,11.07
2022-12-31T00:47:36.563Z,11.18
2022-12-31T00:48:41.846Z,11.13
2022-12-31T00:51:21.900Z,11.16
2022-12-31T00:52:23.904Z,11.14
2022-12-31T00:53:29.612Z,11.15
2022-12-31T00:54:31.560Z,11.14
2022-12-31T00:55:36.087Z,11.13
2022-12-31T00:56:38.096Z,11.15
2022-12-31T00:58:28.780Z,11.23
2022-12-31T00:59:33.487Z,11.30
2022-12-31T01:00:36.664Z,11.29
2022-12-31T01:01:42.999Z,11.27
2022-12-31T01:02:47.726Z,11.31
2022-12-31T01:03:54.182Z,11.36
2022-12-31T01:04:56.135Z,11.28
2022-12-31T01:06:02.021Z,11.29
2022-12-31T01:07:03.997Z,11.34
2022-12-31T01:08:09.116Z,11.40
2022-12-31T01:09:12.998Z,11.36
2022-12-31T01:10:38.019Z,11.32
2022-12-31T01:11:40.217Z,11.28
2022-12-31T01:12:44.759Z,11.40
2022-12-31T01:13:47.694Z,11.40
2022-12-31T01:14:52.423Z,11.43
2022-12-31T01:15:54.580Z,11.43
2022-12-31T01:16:59.228Z,11.47
2022-12-31T01:18:04.411Z,11.48
2022-12-31T01:19:11.308Z,11.48
2022-12-31T01:20:13.465Z,11.50
2022-12-31T01:21:19.025Z,11.53
2022-12-31T01:22:21.273Z,11.54
2022-12-31T01:23:25.859Z,11.59
2022-12-31T01:24:30.460Z,11.51
2022-12-31T01:25:35.564Z,11.61
2022-12-31T01:26:40.799Z,11.62
2022-12-31T01:27:42.767Z,11.57
2022-12-31T01:28:47.787Z,11.63
2022-12-31T01:29:49.756Z,11.56
2022-12-31T01:30:54.319Z,11.54
2022-12-31T01:31:56.301Z,11.61
2022-12-31T01:33:01.350Z,11.51
2022-12-31T01:34:07.839Z,11.57
2022-12-31T01:35:12.672Z,11.52
2022-12-31T01:36:20.373Z,11.50
2022-12-31T01:37:30.616Z,11.56
2022-12-31T01:38:33.661Z,11.61
2022-12-31T01:39:38.253Z,11.57
2022-12-31T01:40:41.159Z,11.64
2022-12-31T01:41:48.180Z,11.64
2022-12-31T01:42:55.095Z,11.60
2022-12-31T01:44:01.733Z,11.65
2022-12-31T01:45:04.428Z,11.57
2022-12-31T01:46:09.057Z,11.67
2022-12-31T01:47:16.029Z,11.74
2022-12-31T01:48:28.525Z,11.73
2022-12-31T01:49:39.964Z,11.76
2022-12-31T01:50:45.868Z,11.75
2022-12-31T01:51:52.783Z,11.70
2022-12-31T01:53:02.425Z,11.63
2022-12-31T01:54:07.225Z,11.67
2022-12-31T01:55:19.566Z,11.57
2022-12-31T01:56:23.536Z,11.54
2022-12-31T01:57:29.484Z,11.53
2022-12-31T01:58:36.511Z,11.59
2022-12-31T01:59:41.213Z,11.62
2022-12-31T02:00:44.886Z,11.60
2022-12-31T02:01:49.516Z,11.67
2022-12-31T02:02:51.942Z,11.53
2022-12-31T02:03:57.785Z,11.56
2022-12-31T02:05:06.413Z,11.62
2022-12-31T02:06:16.486Z,11.64
2022-12-31T02:07:18.429Z,11.62
2022-12-31T02:08:24.189Z,11.62
2022-12-31T02:09:26.369Z,11.64
2022-12-31T02:10:30.954Z,11.64
2022-12-31T02:11:36.695Z,11.61
2022-12-31T02:12:41.837Z,11.67
2022-12-31T02:13:43.867Z,11.65
2022-12-31T02:14:52.929Z,11.65
2022-12-31T02:16:05.881Z,11.62
2022-12-31T02:17:12.312Z,11.60
2022-12-31T02:18:26.133Z,11.58
2022-12-31T02:19:51.138Z,11.51
2022-12-31T02:21:37.188Z,11.52
2022-12-31T02:22:58.241Z,11.48
2022-12-31T02:24:24.925Z,11.47
2022-12-31T02:26:03.114Z,11.34
2022-12-31T02:27:13.362Z,11.28
2022-12-31T02:28:31.920Z,11.25
2022-12-31T02:30:04.828Z,11.21
2022-12-31T02:31:13.040Z,11.14
2022-12-31T02:32:24.350Z,11.15
2022-12-31T02:33:35.118Z,11.15
2022-12-31T02:34:44.298Z,11.10
2022-12-31T02:35:55.325Z,11.02
2022-12-31T02:37:01.328Z,11.02
2022-12-31T02:38:10.550Z,10.94
2022-12-31T02:39:14.108Z,11.03
2022-12-31T02:40:21.652Z,11.06
2022-12-31T02:41:38.524Z,11.05
2022-12-31T02:42:43.077Z,11.08
2022-12-31T02:43:46.653Z,11.09
2022-12-31T02:44:53.844Z,11.08
2022-12-31T02:46:04.539Z,11.07
2022-12-31T02:47:23.314Z,11.04
2022-12-31T02:48:41.747Z,11.05
2022-12-31T02:49:58.408Z,11.07
2022-12-31T02:51:13.828Z,11.08
2022-12-31T02:52:27.083Z,11.14
2022-12-31T02:53:56.300Z,11.19
2022-12-31T02:55:05.687Z,11.28
2022-12-31T02:56:16.295Z,11.29
2022-12-31T02:57:26.754Z,11.29
2022-12-31T02:58:51.236Z,11.29
2022-12-31T03:00:16.843Z,11.39
2022-12-31T03:01:39.997Z,11.45
2022-12-31T03:02:48.177Z,11.42
2022-12-31T03:04:10.194Z,11.46
2022-12-31T03:05:15.460Z,11.45
2022-12-31T03:06:17.447Z,11.42
2022-12-31T03:07:24.300Z,11.47
2022-12-31T03:08:26.933Z,11.50
2022-12-31T03:09:31.557Z,11.49
2022-12-31T03:10:37.062Z,11.50
2022-12-31T03:11:54.446Z,11.46
2022-12-31T03:12:56.483Z,11.39
2022-12-31T03:13:58.517Z,11.34
2022-12-31T03:15:06.747Z,11.26
2022-12-31T03:16:08.844Z,11.28
2022-12-31T03:17:13.507Z,11.41
2022-12-31T03:18:39.787Z,11.47
2022-12-31T03:19:56.837Z,11.45
2022-12-31T03:21:13.831Z,11.47
2022-12-31T03:22:27.983Z,11.49
2022-12-31T03:23:36.113Z,11.48
2022-12-31T03:24:53.238Z,11.52
2022-12-31T03:25:57.126Z,11.53
2022-12-31T03:26:59.065Z,11.47
2022-12-31T03:28:05.673Z,11.46
2022-12-31T03:29:07.643Z,11.38
2022-12-31T03:30:16.678Z,11.50
2022-12-31T03:31:21.284Z,11.54
2022-12-31T03:32:23.335Z,11.56
2022-12-31T03:33:28.502Z,11.53
2022-12-31T03:34:30.439Z,11.48
2022-12-31T03:35:38.106Z,11.51
2022-12-31T03:36:40.290Z,11.51
2022-12-31T03:37:45.412Z,11.40
2022-12-31T03:38:52.476Z,11.42
2022-12-31T03:39:57.299Z,11.37
2022-12-31T03:41:01.884Z,11.37
2022-12-31T03:42:04.108Z,11.38
2022-12-31T03:43:08.946Z,11.45
2022-12-31T03:44:10.884Z,11.45
2022-12-31T03:45:19.042Z,11.41
2022-12-31T03:46:23.624Z,11.52
2022-12-31T03:47:25.579Z,11.50
2022-12-31T03:48:30.198Z,11.49
2022-12-31T03:49:32.311Z,11.48
2022-12-31T03:50:37.597Z,11.42
2022-12-31T03:51:39.531Z,11.38
2022-12-31T03:52:44.621Z,11.45
2022-12-31T03:53:46.571Z,11.46
2022-12-31T03:54:51.123Z,11.45
2022-12-31T03:55:56.598Z,11.43
2022-12-31T03:57:00.368Z,11.56
2022-12-31T03:58:05.295Z,11.57
2022-12-31T03:59:07.250Z,11.58
2022-12-31T04:00:15.429Z,11.67
2022-12-31T04:01:20.020Z,11.77
2022-12-31T04:02:28.486Z,11.84
2022-12-31T04:03:33.776Z,11.83
2022-12-31T04:04:35.932Z,11.84
2022-12-31T04:05:40.573Z,11.82
2022-12-31T04:06:42.631Z,11.77
2022-12-31T04:07:47.367Z,11.79
2022-12-31T04:08:49.332Z,11.79
2022-12-31T04:09:53.970Z,11.86
2022-12-31T04:10:58.592Z,11.81
2022-12-31T04:12:00.643Z,11.74
2022-12-31T04:13:05.271Z,11.74
2022-12-31T04:14:07.329Z,11.79
2022-12-31T04:15:20.910Z,11.82
2022-12-31T04:16:25.868Z,11.94
2022-12-31T04:17:30.489Z,11.91
2022-12-31T04:18:32.619Z,11.96
2022-12-31T04:19:37.683Z,12.03
2022-12-31T04:20:39.634Z,12.13
2022-12-31T04:21:44.206Z,12.03
2022-12-31T04:22:46.226Z,12.03
2022-12-31T04:23:50.775Z,12.05
2022-12-31T04:24:52.779Z,12.09
2022-12-31T04:25:57.360Z,12.07
2022-12-31T04:27:05.335Z,12.06
2022-12-31T04:28:12.012Z,12.14
2022-12-31T04:29:14.319Z,12.22
2022-12-31T04:30:18.973Z,12.25
2022-12-31T04:31:20.982Z,12.22
2022-12-31T04:32:28.175Z,12.27
2022-12-31T04:33:30.286Z,12.29
2022-12-31T04:34:35.366Z,12.34
2022-12-31T04:35:37.445Z,12.34
2022-12-31T04:36:42.171Z,12.26
2022-12-31T04:37:44.182Z,12.30
2022-12-31T04:38:48.710Z,12.36
2022-12-31T04:39:50.728Z,12.30
2022-12-31T04:41:07.705Z,12.34
2022-12-31T04:42:12.748Z,12.29
2022-12-31T04:43:14.793Z,12.34
2022-12-31T04:44:19.504Z,12.40
2022-12-31T04:45:21.467Z,12.37
2022-12-31T04:46:27.613Z,12.35
2022-12-31T04:47:32.180Z,12.45
2022-12-31T04:48:37.244Z,12.40
2022-12-31T04:49:41.774Z,12.39
2022-12-31T04:50:43.733Z,12.40
2022-12-31T04:51:48.349Z,12.40
2022-12-31T04:52:50.328Z,12.42
2022-12-31T04:53:55.411Z,12.39
2022-12-31T04:54:57.431Z,12.35
2022-12-31T04:56:02.092Z,12.40
2022-12-31T04:57:06.693Z,12.40
2022-12-31T04:58:08.649Z,12.36
2022-12-31T04:59:13.324Z,12.39
2022-12-31T05:00:15.930Z,12.33
2022-12-31T05:01:20.650Z,12.39
2022-12-31T05:02:25.473Z,12.40
2022-12-31T05:03:30.361Z,12.36
2022-12-31T05:04:34.889Z,12.34
2022-12-31T05:05:39.285Z,12.34
2022-12-31T05:06:43.871Z,12.34
2022-12-31T05:07:45.827Z,12.35
2022-12-31T05:08:50.601Z,12.36
2022-12-31T05:09:52.598Z,12.39
2022-12-31T05:10:57.365Z,12.37
2022-12-31T05:11:59.376Z,12.44
2022-12-31T05:13:03.929Z,12.44
2022-12-31T05:14:05.915Z,12.52
2022-12-31T05:15:11.756Z,12.51
2022-12-31T05:16:13.776Z,12.60
2022-12-31T05:17:18.364Z,12.57
2022-12-31T05:18:20.378Z,12.63
2022-12-31T05:19:27.582Z,12.70
2022-12-31T05:20:29.785Z,12.68
2022-12-31T05:21:34.379Z,12.63
2022-12-31T05:22:36.365Z,12.70
2022-12-31T05:23:40.918Z,12.61
2022-12-31T05:24:42.854Z,12.54
2022-12-31T05:25:49.316Z,12.58
2022-12-31T05:26:51.249Z,12.57
2022-12-31T05:27:55.969Z,12.61
2022-12-31T05:29:00.399Z,12.53
2022-12-31T05:30:05.007Z,12.46
2022-12-31T05:31:07.012Z,12.52
2022-12-31T05:32:11.812Z,12.47
2022-12-31T05:33:13.895Z,12.40
2022-12-31T05:34:18.409Z,12.46
2022-12-31T05:35:22.985Z,12.48
2022-12-31T05:36:27.573Z,12.46
2022-12-31T05:37:30.032Z,12.47
2022-12-31T05:38:34.653Z,12.45
2022-12-31T05:39:36.610Z,12.61
2022-12-31T05:40:41.155Z,12.54
2022-12-31T05:41:43.118Z,12.61
2022-12-31T05:42:47.766Z,12.58
2022-12-31T05:43:53.278Z,12.56
2022-12-31T05:44:55.279Z,12.45
2022-12-31T05:45:59.888Z,12.54
2022-12-31T05:47:01.887Z,12.59
2022-12-31T05:48:06.715Z,12.53
2022-12-31T05:49:08.799Z,12.57
2022-12-31T05:50:16.003Z,12.56
2022-12-31T05:51:20.621Z,12.55
2022-12-31T05:52:25.538Z,12.58
2022-12-31T05:53:30.094Z,12.58
2022-12-31T05:54:32.063Z,12.66
2022-12-31T05:55:36.610Z,12.61
2022-12-31T05:56:38.594Z,12.63
2022-12-31T05:57:43.581Z,12.57
2022-12-31T05:58:45.541Z,12.53
2022-12-31T05:59:50.118Z,12.63
2022-12-31T06:00:52.647Z,12.65
2022-12-31T06:01:57.404Z,12.62
2022-12-31T06:02:59.506Z,12.62
2022-12-31T06:04:04.168Z,12.67
2022-12-31T06:05:07.426Z,12.72
2022-12-31T06:06:12.145Z,12.69
2022-12-31T06:07:16.715Z,12.63
2022-12-31T06:08:21.286Z,12.66
2022-12-31T06:09:23.679Z,12.59
2022-12-31T06:10:28.259Z,12.60
2022-12-31T06:11:30.246Z,12.56
2022-12-31T06:12:35.556Z,12.49
2022-12-31T06:13:40.065Z,12.56
2022-12-31T06:14:45.616Z,12.57
2022-12-31T06:15:50.514Z,12.60
2022-12-31T06:16:52.464Z,12.64
2022-12-31T06:17:57.016Z,12.59
2022-12-31T06:18:59.082Z,12.62
2022-12-31T06:20:08.880Z,12.56
2022-12-31T06:21:15.895Z,12.61
2022-12-31T06:22:23.028Z,12.60
2022-12-31T06:23:24.998Z,12.58
2022-12-31T06:24:29.636Z,12.60
2022-12-31T06:25:34.537Z,12.56
2022-12-31T06:26:37.051Z,12.55
2022-12-31T06:27:41.549Z,12.53
2022-12-31T06:28:43.526Z,12.56
2022-12-31T06:29:48.433Z,12.63
2022-12-31T06:30:50.429Z,12.61
2022-12-31T06:31:55.184Z,12.61
2022-12-31T06:32:59.675Z,12.58
2022-12-31T06:34:01.598Z,12.53
2022-12-31T06:35:06.779Z,12.53
2022-12-31T06:36:12.624Z,12.51
2022-12-31T06:37:17.149Z,12.53
2022-12-31T06:38:21.728Z,12.57
2022-12-31T06:39:26.471Z,12.64
2022-12-31T06:40:28.725Z,12.65
2022-12-31T06:41:34.435Z,12.61
2022-12-31T06:42:38.969Z,12.61
2022-12-31T06:43:42.034Z,12.61
2022-12-31T06:44:46.559Z,12.58
2022-12-31T06:45:49.197Z,12.56
2022-12-31T06:46:53.751Z,12.51
2022-12-31T06:47:55.728Z,12.52
2022-12-31T06:49:00.296Z,12.52
2022-12-31T06:50:02.264Z,12.54
2022-12-31T06:51:13.455Z,12.53
2022-12-31T06:52:21.312Z,12.58
2022-12-31T06:53:25.806Z,12.58
2022-12-31T06:54:30.333Z,12.58
2022-12-31T06:55:33.317Z,12.52
2022-12-31T06:56:38.740Z,12.52
2022-12-31T06:57:41.414Z,12.52
2022-12-31T06:58:46.680Z,12.50
2022-12-31T06:59:49.241Z,12.46
2022-12-31T07:01:01.638Z,12.54
2022-12-31T07:02:26.817Z,12.44
2022-12-31T07:03:37.925Z,12.44
2022-12-31T07:05:04.818Z,12.45
2022-12-31T07:06:13.474Z,12.42
2022-12-31T07:07:22.883Z,12.38
2022-12-31T07:08:52.252Z,12.31
2022-12-31T07:10:01.286Z,12.32
2022-12-31T07:11:10.574Z,12.28
2022-12-31T07:12:25.083Z,12.22
2022-12-31T07:13:49.630Z,12.28
2022-12-31T07:14:58.184Z,12.18
2022-12-31T07:16:22.884Z,12.16
2022-12-31T07:17:36.258Z,12.12
2022-12-31T07:18:49.288Z,12.13
2022-12-31T07:20:01.085Z,12.08
2022-12-31T07:21:06.363Z,12.04
2022-12-31T07:22:14.075Z,12.04
2022-12-31T07:23:19.209Z,12.01
2022-12-31T07:24:27.198Z,12.02
2022-12-31T07:25:30.233Z,12.00
2022-12-31T07:26:56.183Z,12.03
2022-12-31T07:28:14.169Z,11.97
2022-12-31T07:29:25.801Z,12.02
2022-12-31T07:30:36.665Z,11.96
2022-12-31T07:31:58.016Z,12.02
2022-12-31T07:33:23.555Z,12.09
2022-12-31T07:34:35.607Z,12.09
2022-12-31T07:35:47.808Z,12.11
2022-12-31T07:37:02.169Z,12.10
2022-12-31T07:38:13.798Z,12.13
2022-12-31T07:39:23.279Z,12.08
2022-12-31T07:40:34.827Z,12.16
2022-12-31T07:41:53.618Z,12.13
2022-12-31T07:43:08.711Z,12.12
2022-12-31T07:44:26.709Z,12.12
2022-12-31T07:45:40.491Z,12.13
2022-12-31T07:46:54.443Z,12.14
2022-12-31T07:48:02.302Z,12.13
2022-12-31T07:49:08.800Z,12.07
2022-12-31T07:50:15.248Z,12.11
2022-12-31T07:51:20.365Z,12.13
2022-12-31T07:52:23.502Z,12.10
2022-12-31T07:53:28.979Z,12.07
2022-12-31T07:54:30.887Z,12.09
2022-12-31T07:55:38.163Z,12.11
2022-12-31T07:56:40.483Z,12.11
2022-12-31T07:57:53.931Z,12.11
2022-12-31T07:59:08.291Z,12.12
2022-12-31T08:00:14.971Z,12.15
2022-12-31T08:01:31.293Z,12.18
2022-12-31T08:02:59.487Z,12.15
2022-12-31T08:04:09.911Z,12.28
2022-12-31T08:05:18.948Z,12.19
2022-12-31T08:06:33.500Z,12.16
2022-12-31T08:07:43.579Z,12.16
2022-12-31T08:08:53.976Z,12.17
2022-12-31T08:10:05.411Z,12.23
2022-12-31T08:11:17.764Z,12.17
2022-12-31T08:12:24.325Z,12.17
2022-12-31T08:13:27.586Z,12.13
2022-12-31T08:14:33.042Z,12.12
2022-12-31T08:15:37.410Z,12.19
2022-12-31T08:16:43.083Z,12.27
2022-12-31T08:17:45.873Z,12.30
2022-12-31T08:18:50.969Z,12.25
2022-12-31T08:19:56.295Z,12.31
2022-12-31T08:21:06.826Z,12.32
2022-12-31T08:22:43.734Z,12.37
2022-12-31T08:23:54.278Z,12.44
2022-12-31T08:25:11.383Z,12.44
2022-12-31T08:26:29.463Z,12.42
2022-12-31T08:27:40.523Z,12.59
2022-12-31T08:28:56.619Z,12.55
2022-12-31T08:30:05.623Z,12.47
2022-12-31T08:31:17.491Z,12.59
2022-12-31T08:32:26.938Z,12.54
2022-12-31T08:33:39.851Z,12.62
2022-12-31T08:34:55.838Z,12.67
2022-12-31T08:36:14.368Z,12.72
2022-12-31T08:37:26.477Z,12.81
2022-12-31T08:38:40.551Z,12.80
2022-12-31T08:40:05.061Z,12.93
2022-12-31T08:41:19.587Z,12.97
2022-12-31T08:42:38.694Z,13.09
2022-12-31T08:43:52.331Z,13.19
2022-12-31T08:45:03.178Z,13.37
2022-12-31T08:46:10.435Z,13.58
2022-12-31T08:47:24.426Z,13.79
2022-12-31T08:48:32.902Z,14.07
2022-12-31T08:49:38.586Z,14.16
2022-12-31T08:50:43.719Z,14.35
2022-12-31T08:51:46.406Z,14.51
2022-12-31T08:52:51.681Z,14.30
2022-12-31T08:53:55.369Z,14.47
2022-12-31T08:55:00.645Z,14.37
2022-12-31T08:56:10.317Z,14.28
2022-12-31T08:57:26.828Z,14.02
2022-12-31T08:58:42.634Z,13.98
2022-12-31T08:59:56.135Z,14.05
2022-12-31T09:00:59.244Z,13.95
2022-12-31T09:02:27.523Z,13.83
2022-12-31T09:03:39.218Z,13.87
2022-12-31T09:04:48.989Z,13.77
2022-12-31T09:06:00.983Z,13.70
2022-12-31T09:07:07.109Z,13.68
2022-12-31T09:08:16.918Z,13.63
2022-12-31T09:09:36.417Z,13.65
2022-12-31T09:10:44.908Z,13.60
2022-12-31T09:11:58.959Z,13.58
2022-12-31T09:13:14.967Z,13.56
2022-12-31T09:14:43.200Z,13.56
2022-12-31T09:15:54.036Z,13.65
2022-12-31T09:17:02.350Z,13.71
2022-12-31T09:18:07.865Z,13.82
2022-12-31T09:19:09.975Z,13.68
2022-12-31T09:20:23.938Z,13.64
2022-12-31T09:21:28.732Z,13.76
2022-12-31T09:22:31.139Z,13.81
2022-12-31T09:23:36.313Z,13.86
2022-12-31T09:24:39.552Z,13.96
2022-12-31T09:25:53.984Z,13.88
2022-12-31T09:27:06.191Z,13.97
2022-12-31T09:28:20.132Z,13.89
2022-12-31T09:29:37.256Z,13.94
2022-12-31T09:30:48.710Z,13.90
2022-12-31T09:31:59.859Z,13.88
2022-12-31T09:33:07.577Z,13.81
2022-12-31T09:34:25.246Z,13.96
2022-12-31T09:35:37.692Z,13.96
2022-12-31T09:36:46.519Z,14.15
2022-12-31T09:37:52.720Z,14.41
2022-12-31T09:39:08.303Z,14.59
2022-12-31T09:40:43.419Z,14.35
2022-12-31T09:42:21.084Z,14.69
2022-12-31T09:44:00.858Z,14.80
2022-12-31T09:45:39.438Z,15.25
2022-12-31T09:47:22.704Z,15.76
2022-12-31T09:48:53.409Z,16.35
2022-12-31T09:50:18.935Z,16.83
2022-12-31T09:51:31.347Z,16.69
2022-12-31T09:52:50.232Z,17.07
2022-12-31T09:54:19.740Z,17.03
2022-12-31T09:55:37.067Z,17.19
2022-12-31T09:56:48.495Z,17.55
2022-12-31T09:58:06.153Z,16.43
2022-12-31T09:59:17.150Z,16.23
2022-12-31T10:00:31.268Z,16.59
2022-12-31T10:01:48.862Z,16.60
2022-12-31T10:03:08.016Z,16.03
2022-12-31T10:04:42.936Z,16.15
2022-12-31T10:06:07.594Z,16.19
2022-12-31T10:07:27.738Z,16.06
2022-12-31T10:08:43.215Z,15.86
2022-12-31T10:10:02.964Z,15.87
2022-12-31T10:11:12.394Z,15.88
2022-12-31T10:12:36.512Z,15.69
2022-12-31T10:14:03.278Z,15.85
2022-12-31T10:15:35.635Z,15.63
2022-12-31T10:16:52.187Z,16.05
2022-12-31T10:18:02.159Z,15.72
2022-12-31T10:19:45.437Z,15.93
2022-12-31T10:20:57.512Z,15.72
2022-12-31T10:22:13.951Z,15.93
2022-12-31T10:24:02.981Z,16.20
2022-12-31T10:25:38.097Z,16.16
2022-12-31T10:27:04.593Z,16.43
2022-12-31T10:28:17.692Z,16.89
2022-12-31T10:29:30.730Z,17.05
2022-12-31T10:30:43.230Z,16.81
2022-12-31T10:31:56.933Z,16.89
2022-12-31T10:33:10.540Z,17.23
2022-12-31T10:34:16.466Z,17.67
2022-12-31T10:35:35.789Z,17.65
2022-12-31T10:36:59.076Z,17.66
2022-12-31T10:38:17.283Z,17.43
2022-12-31T10:39:31.437Z,17.44
2022-12-31T10:40:59.430Z,17.40
2022-12-31T10:42:28.579Z,17.77
2022-12-31T10:44:03.535Z,18.14
2022-12-31T10:45:33.230Z,17.80
2022-12-31T10:47:16.208Z,18.41
2022-12-31T10:49:06.173Z,18.84
2022-12-31T10:50:33.755Z,18.78
2022-12-31T10:52:25.680Z,18.67
2022-12-31T10:53:56.944Z,18.63
2022-12-31T10:55:36.156Z,18.53
2022-12-31T10:57:07.460Z,17.97
2022-12-31T10:58:50.389Z,18.10
2022-12-31T11:00:16.948Z,17.67
2022-12-31T11:01:25.265Z,18.29
2022-12-31T11:03:00.710Z,17.81
2022-12-31T11:04:33.394Z,17.22
2022-12-31T11:06:35.074Z,17.43
2022-12-31T11:07:55.309Z,17.78
2022-12-31T11:09:38.366Z,18.01
2022-12-31T11:11:04.349Z,18.15
2022-12-31T11:12:18.099Z,17.81
2022-12-31T11:14:04.039Z,18.08
2022-12-31T11:15:35.838Z,18.49
2022-12-31T11:17:04.393Z,18.49
2022-12-31T11:18:24.105Z,18.04
2022-12-31T11:19:38.553Z,17.68
2022-12-31T11:21:04.497Z,18.36
2022-12-31T11:22:27.099Z,18.74
2022-12-31T11:23:38.987Z,18.94
2022-12-31T11:25:02.235Z,18.90
2022-12-31T11:26:18.678Z,18.55
2022-12-31T11:27:44.834Z,18.23
2022-12-31T11:29:11.107Z,17.60
2022-12-31T11:30:24.783Z,17.88
2022-12-31T11:31:46.949Z,17.98
2022-12-31T11:33:03.839Z,17.94
2022-12-31T11:34:24.763Z,18.30
2022-12-31T11:35:40.855Z,18.42
2022-12-31T11:37:09.634Z,18.46
2022-12-31T11:38:23.964Z,18.67
2022-12-31T11:39:52.032Z,18.85
2022-12-31T11:41:00.733Z,18.60
2022-12-31T11:42:19.075Z,18.84
2022-12-31T11:43:29.957Z,18.65
2022-12-31T11:44:40.616Z,18.41
2022-12-31T11:46:05.098Z,18.04
2022-12-31T11:48:04.235Z,18.02
2022-12-31T11:49:23.990Z,18.13
2022-12-31T11:50:34.887Z,18.27
2022-12-31T11:51:54.983Z,17.89
2022-12-31T11:53:27.077Z,17.96
2022-12-31T11:54:41.547Z,18.27
2022-12-31T11:56:00.418Z,18.27
2022-12-31T11:57:14.882Z,18.18
2022-12-31T11:58:21.681Z,18.11
2022-12-31T11:59:26.169Z,17.86
2022-12-31T12:00:30.436Z,18.08
2022-12-31T12:01:39.013Z,18.00
2022-12-31T12:02:45.761Z,17.94
2022-12-31T12:03:50.433Z,17.81
2022-12-31T12:05:00.869Z,18.18
2022-12-31T12:06:08.625Z,18.28
2022-12-31T12:07:14.652Z,18.48
2022-12-31T12:08:20.397Z,18.72
2022-12-31T12:09:27.970Z,18.49
2022-12-31T12:10:36.802Z,18.81
2022-12-31T12:11:42.423Z,18.99
2022-12-31T12:12:46.964Z,19.31
2022-12-31T12:13:51.864Z,19.12
2022-12-31T12:14:54.704Z,18.65
2022-12-31T12:16:02.740Z,18.46
2022-12-31T12:17:09.535Z,18.14
2022-12-31T12:18:27.418Z,18.34
2022-12-31T12:19:34.662Z,18.35
2022-12-31T12:20:40.928Z,18.08
2022-12-31T12:21:49.622Z,18.43
2022-12-31T12:22:53.403Z,18.33
2022-12-31T12:23:59.119Z,18.21
2022-12-31T12:25:04.843Z,18.09
2022-12-31T12:26:10.156Z,18.21
2022-12-31T12:27:25.424Z,18.19
2022-12-31T12:28:32.247Z,18.38
2022-12-31T12:29:35.390Z,18.24
2022-12-31T12:30:44.153Z,18.00
2022-12-31T12:31:58.558Z,17.99
2022-12-31T12:33:05.215Z,17.86
2022-12-31T12:34:25.506Z,18.23
2022-12-31T12:35:32.736Z,18.39
2022-12-31T12:36:49.251Z,18.54
2022-12-31T12:37:59.342Z,18.67
2022-12-31T12:39:05.051Z,18.14
2022-12-31T12:40:18.793Z,18.51
2022-12-31T12:41:26.516Z,18.67
2022-12-31T12:42:29.141Z,18.94
2022-12-31T12:43:35.564Z,19.04
2022-12-31T12:44:40.297Z,18.79
2022-12-31T12:45:52.191Z,18.12
2022-12-31T12:46:58.240Z,18.37
2022-12-31T12:48:05.814Z,18.40
2022-12-31T12:49:21.268Z,17.95
2022-12-31T12:50:29.815Z,18.11
2022-12-31T12:51:52.782Z,17.76
2022-12-31T12:53:10.790Z,17.36
2022-12-31T12:54:30.902Z,17.78
2022-12-31T12:55:43.848Z,17.61
2022-12-31T12:56:57.991Z,17.61
2022-12-31T12:58:14.126Z,17.30
2022-12-31T13:00:10.091Z,17.07
2022-12-31T13:01:20.579Z,17.04
2022-12-31T13:02:49.058Z,17.03
2022-12-31T13:04:34.019Z,16.94
2022-12-31T13:05:51.405Z,17.08
2022-12-31T13:07:12.959Z,17.18
2022-12-31T13:08:32.267Z,17.20
2022-12-31T13:09:51.108Z,17.10
2022-12-31T13:11:11.518Z,17.15
2022-12-31T13:12:24.577Z,17.28
2022-12-31T13:13:41.770Z,17.23
2022-12-31T13:14:54.461Z,17.34
2022-12-31T13:16:07.547Z,17.30
2022-12-31T13:17:36.363Z,17.17
2022-12-31T13:20:41.889Z,17.30
2022-12-31T13:21:56.555Z,17.05
2022-12-31T13:23:09.797Z,17.08
2022-12-31T13:24:23.745Z,17.07
2022-12-31T13:25:37.785Z,17.22
2022-12-31T13:26:45.295Z,17.09
2022-12-31T13:27:53.958Z,17.01
2022-12-31T13:28:59.850Z,17.00
2022-12-31T13:30:09.737Z,17.19
2022-12-31T13:31:18.179Z,16.86
2022-12-31T13:32:27.781Z,16.83
2022-12-31T13:33:37.094Z,16.73
2022-12-31T13:34:44.495Z,16.67
2022-12-31T13:35:52.686Z,16.76
2022-12-31T13:36:57.540Z,16.68
2022-12-31T13:38:14.728Z,16.64
2022-12-31T13:39:23.410Z,16.60
2022-12-31T13:40:30.565Z,16.49
2022-12-31T13:41:40.856Z,16.53
2022-12-31T13:42:55.170Z,16.63
2022-12-31T13:44:06.800Z,16.48
2022-12-31T13:45:15.752Z,16.33
2022-12-31T13:46:26.372Z,16.30
2022-12-31T13:47:35.666Z,16.31
2022-12-31T13:48:47.475Z,16.40
2022-12-31T13:49:54.921Z,16.38
2022-12-31T13:51:06.071Z,16.32
2022-12-31T13:52:30.510Z,16.43
2022-12-31T13:53:45.814Z,16.42
2022-12-31T13:54:58.922Z,16.51
2022-12-31T13:56:06.796Z,16.44
2022-12-31T13:57:19.625Z,16.44
2022-12-31T13:58:33.571Z,16.42
2022-12-31T13:59:40.995Z,16.32
2022-12-31T14:00:50.203Z,16.18
2022-12-31T14:02:00.631Z,16.30
2022-12-31T14:03:14.163Z,16.30
2022-12-31T14:04:25.809Z,16.39
2022-12-31T14:05:31.525Z,16.43
2022-12-31T14:06:45.749Z,16.57
2022-12-31T14:07:52.751Z,16.55
2022-12-31T14:09:00.088Z,16.55
2022-12-31T14:10:02.170Z,16.38
2022-12-31T14:11:16.865Z,16.26
2022-12-31T14:12:43.091Z,16.31
2022-12-31T14:14:04.888Z,16.36
2022-12-31T14:15:19.451Z,16.33
2022-12-31T14:16:31.020Z,16.35
2022-12-31T14:17:44.864Z,16.34
2022-12-31T14:18:54.025Z,16.27
2022-12-31T14:20:09.359Z,16.30
2022-12-31T14:21:17.905Z,16.05
2022-12-31T14:22:30.545Z,15.99
2022-12-31T14:23:43.099Z,16.00
2022-12-31T14:24:52.438Z,15.98
2022-12-31T14:26:00.482Z,16.00
2022-12-31T14:27:11.068Z,16.01
2022-12-31T14:28:21.764Z,15.90
2022-12-31T14:29:37.534Z,15.76
2022-12-31T14:30:45.164Z,15.74
2022-12-31T14:32:06.607Z,15.64
2022-12-31T14:33:37.448Z,15.52
2022-12-31T14:34:49.846Z,15.47
2022-12-31T14:36:10.849Z,15.40
2022-12-31T14:37:22.750Z,15.40
2022-12-31T14:38:40.412Z,15.44
2022-12-31T14:39:51.506Z,15.29
2022-12-31T14:41:09.192Z,15.25
2022-12-31T14:42:26.760Z,15.20
2022-12-31T14:43:40.757Z,15.18
2022-12-31T14:44:58.290Z,15.05
2022-12-31T14:46:12.500Z,14.97
2022-12-31T14:47:30.026Z,15.06
2022-12-31T14:48:46.114Z,14.97
2022-12-31T14:49:59.701Z,14.88
2022-12-31T14:51:08.361Z,14.80
2022-12-31T14:52:25.142Z,14.81
2022-12-31T14:53:31.410Z,14.75
2022-12-31T14:54:39.025Z,14.76
2022-12-31T14:55:46.137Z,14.65
2022-12-31T14:56:51.422Z,14.59
2022-12-31T14:59:26.477Z,14.54
2022-12-31T15:00:34.767Z,14.44
2022-12-31T15:01:47.710Z,14.40
2022-12-31T15:02:51.834Z,14.37
2022-12-31T15:03:58.467Z,14.38
2022-12-31T15:05:17.983Z,14.25
2022-12-31T15:06:41.964Z,14.17
2022-12-31T15:08:01.625Z,14.04
2022-12-31T15:09:15.479Z,13.94
2022-12-31T15:10:25.611Z,13.87
2022-12-31T15:11:54.823Z,13.76
2022-12-31T15:13:05.163Z,13.71
2022-12-31T15:14:39.636Z,13.64